sensor_id;sensor_type;location;lat;lon;timestamp;P1;durP1;ratioP1;P2;durP2;ratioP2
928;SDS011;451;47.988;7.842;2023-05-07T00:00:56;5.50;;;5.13;;
928;SDS011;451;47.988;7.842;2023-05-07T00:10:02;6.70;;;5.30;;
928;SDS011;451;47.988;7.842;2023-05-07T00:19:05;5.53;;;4.80;;
928;SDS011;451;47.988;7.842;2023-05-07T00:28:09;5.37;;;4.90;;
928;SDS011;451;47.988;7.842;2023-05-07T00:37:12;5.20;;;4.80;;
928;SDS011;451;47.988;7.842;2023-05-07T00:46:17;7.50;;;5.03;;
928;SDS011;451;47.988;7.842;2023-05-07T00:55:22;5.20;;;4.70;;
928;SDS011;451;47.988;7.842;2023-05-07T01:04:27;5.50;;;5.10;;
928;SDS011;451;47.988;7.842;2023-05-07T01:13:30;5.13;;;4.60;;
928;SDS011;451;47.988;7.842;2023-05-07T01:22:35;4.90;;;4.50;;
928;SDS011;451;47.988;7.842;2023-05-07T01:31:41;5.47;;;4.97;;
928;SDS011;451;47.988;7.842;2023-05-07T01:40:46;5.93;;;5.30;;
928;SDS011;451;47.988;7.842;2023-05-07T01:49:50;5.20;;;4.90;;
928;SDS011;451;47.988;7.842;2023-05-07T01:58:54;5.80;;;5.30;;
928;SDS011;451;47.988;7.842;2023-05-07T02:07:57;4.97;;;4.53;;
928;SDS011;451;47.988;7.842;2023-05-07T02:17:04;4.97;;;4.57;;
928;SDS011;451;47.988;7.842;2023-05-07T02:26:07;6.50;;;5.20;;
928;SDS011;451;47.988;7.842;2023-05-07T02:35:14;5.73;;;5.23;;
928;SDS011;451;47.988;7.842;2023-05-07T02:44:18;5.03;;;4.73;;
928;SDS011;451;47.988;7.842;2023-05-07T02:53:26;7.00;;;5.40;;
928;SDS011;451;47.988;7.842;2023-05-07T03:02:31;4.93;;;4.53;;
928;SDS011;451;47.988;7.842;2023-05-07T03:11:35;6.30;;;5.70;;
928;SDS011;451;47.988;7.842;2023-05-07T03:20:39;6.20;;;5.00;;
928;SDS011;451;47.988;7.842;2023-05-07T03:29:44;5.83;;;5.23;;
928;SDS011;451;47.988;7.842;2023-05-07T03:38:47;4.83;;;4.53;;
928;SDS011;451;47.988;7.842;2023-05-07T03:47:56;7.10;;;5.33;;
928;SDS011;451;47.988;7.842;2023-05-07T03:56:59;5.77;;;5.17;;
928;SDS011;451;47.988;7.842;2023-05-07T04:06:04;6.27;;;5.77;;
928;SDS011;451;47.988;7.842;2023-05-07T04:15:10;6.20;;;5.60;;
928;SDS011;451;47.988;7.842;2023-05-07T04:24:14;6.07;;;5.47;;
928;SDS011;451;47.988;7.842;2023-05-07T04:33:17;6.17;;;5.60;;
928;SDS011;451;47.988;7.842;2023-05-07T04:42:23;6.53;;;6.03;;
928;SDS011;451;47.988;7.842;2023-05-07T04:51:26;6.80;;;6.20;;
928;SDS011;451;47.988;7.842;2023-05-07T05:00:31;6.70;;;6.10;;
928;SDS011;451;47.988;7.842;2023-05-07T05:09:36;5.50;;;5.10;;
928;SDS011;451;47.988;7.842;2023-05-07T05:18:40;5.40;;;5.00;;
928;SDS011;451;47.988;7.842;2023-05-07T05:27:45;6.47;;;5.87;;
928;SDS011;451;47.988;7.842;2023-05-07T05:36:50;7.17;;;5.20;;
928;SDS011;451;47.988;7.842;2023-05-07T05:45:59;4.70;;;4.40;;
928;SDS011;451;47.988;7.842;2023-05-07T05:55:05;6.30;;;5.70;;
928;SDS011;451;47.988;7.842;2023-05-07T06:04:10;5.90;;;5.50;;
928;SDS011;451;47.988;7.842;2023-05-07T06:13:15;5.60;;;5.20;;
928;SDS011;451;47.988;7.842;2023-05-07T06:22:19;7.30;;;6.70;;
928;SDS011;451;47.988;7.842;2023-05-07T06:31:28;8.40;;;7.60;;
928;SDS011;451;47.988;7.842;2023-05-07T06:40:41;7.40;;;6.77;;
928;SDS011;451;47.988;7.842;2023-05-07T06:49:46;7.53;;;6.80;;
928;SDS011;451;47.988;7.842;2023-05-07T06:58:52;7.30;;;6.60;;
928;SDS011;451;47.988;7.842;2023-05-07T07:07:58;6.77;;;6.23;;
928;SDS011;451;47.988;7.842;2023-05-07T07:17:03;7.17;;;6.60;;
928;SDS011;451;47.988;7.842;2023-05-07T07:26:08;7.37;;;6.67;;
928;SDS011;451;47.988;7.842;2023-05-07T07:35:12;7.80;;;7.20;;
928;SDS011;451;47.988;7.842;2023-05-07T07:44:16;7.57;;;6.97;;
928;SDS011;451;47.988;7.842;2023-05-07T07:53:25;6.63;;;6.07;;
928;SDS011;451;47.988;7.842;2023-05-07T08:02:29;7.03;;;6.43;;
928;SDS011;451;47.988;7.842;2023-05-07T08:11:33;7.10;;;6.60;;
928;SDS011;451;47.988;7.842;2023-05-07T08:20:39;6.67;;;6.07;;
928;SDS011;451;47.988;7.842;2023-05-07T08:29:47;6.97;;;6.30;;
928;SDS011;451;47.988;7.842;2023-05-07T08:38:55;6.67;;;6.17;;
928;SDS011;451;47.988;7.842;2023-05-07T08:47:59;6.67;;;6.10;;
928;SDS011;451;47.988;7.842;2023-05-07T08:57:09;7.03;;;6.53;;
928;SDS011;451;47.988;7.842;2023-05-07T09:06:13;7.37;;;6.87;;
928;SDS011;451;47.988;7.842;2023-05-07T09:15:18;9.10;;;8.20;;
928;SDS011;451;47.988;7.842;2023-05-07T09:24:22;7.63;;;7.03;;
928;SDS011;451;47.988;7.842;2023-05-07T09:33:27;7.43;;;6.80;;
928;SDS011;451;47.988;7.842;2023-05-07T09:42:33;6.77;;;6.27;;
928;SDS011;451;47.988;7.842;2023-05-07T09:51:41;7.80;;;7.10;;
928;SDS011;451;47.988;7.842;2023-05-07T10:00:48;6.43;;;5.83;;
928;SDS011;451;47.988;7.842;2023-05-07T10:09:54;6.70;;;6.20;;
928;SDS011;451;47.988;7.842;2023-05-07T10:19:06;5.83;;;5.40;;
928;SDS011;451;47.988;7.842;2023-05-07T10:28:13;7.00;;;6.40;;
928;SDS011;451;47.988;7.842;2023-05-07T10:37:20;7.83;;;7.13;;
928;SDS011;451;47.988;7.842;2023-05-07T10:46:26;7.83;;;7.13;;
928;SDS011;451;47.988;7.842;2023-05-07T10:55:41;8.50;;;7.73;;
928;SDS011;451;47.988;7.842;2023-05-07T11:14:42;7.33;;;6.70;;
928;SDS011;451;47.988;7.842;2023-05-07T11:33:16;6.07;;;5.57;;
928;SDS011;451;47.988;7.842;2023-05-07T11:42:27;6.10;;;5.53;;
928;SDS011;451;47.988;7.842;2023-05-07T11:51:30;5.97;;;5.57;;
928;SDS011;451;47.988;7.842;2023-05-07T12:00:37;6.03;;;5.63;;
928;SDS011;451;47.988;7.842;2023-05-07T12:09:40;6.43;;;6.00;;
928;SDS011;451;47.988;7.842;2023-05-07T12:18:45;7.17;;;6.50;;
928;SDS011;451;47.988;7.842;2023-05-07T12:27:51;6.87;;;6.43;;
928;SDS011;451;47.988;7.842;2023-05-07T12:36:55;5.63;;;5.33;;
928;SDS011;451;47.988;7.842;2023-05-07T12:45:59;5.73;;;5.20;;
928;SDS011;451;47.988;7.842;2023-05-07T12:55:06;6.23;;;5.83;;
928;SDS011;451;47.988;7.842;2023-05-07T13:04:10;6.43;;;5.83;;
928;SDS011;451;47.988;7.842;2023-05-07T13:13:14;6.07;;;5.13;;
928;SDS011;451;47.988;7.842;2023-05-07T13:22:17;5.50;;;5.10;;
928;SDS011;451;47.988;7.842;2023-05-07T13:31:22;5.10;;;4.80;;
928;SDS011;451;47.988;7.842;2023-05-07T13:40:25;6.17;;;5.77;;
928;SDS011;451;47.988;7.842;2023-05-07T13:49:29;8.60;;;7.70;;
928;SDS011;451;47.988;7.842;2023-05-07T13:58:32;7.07;;;6.50;;
928;SDS011;451;47.988;7.842;2023-05-07T14:07:39;6.40;;;6.00;;
928;SDS011;451;47.988;7.842;2023-05-07T14:16:42;7.17;;;6.70;;
928;SDS011;451;47.988;7.842;2023-05-07T14:25:46;6.47;;;6.00;;
928;SDS011;451;47.988;7.842;2023-05-07T14:34:50;6.97;;;5.50;;
928;SDS011;451;47.988;7.842;2023-05-07T14:43:54;5.53;;;5.13;;
928;SDS011;451;47.988;7.842;2023-05-07T14:52:57;5.70;;;5.20;;
928;SDS011;451;47.988;7.842;2023-05-07T15:02:01;3.20;;;3.00;;
928;SDS011;451;47.988;7.842;2023-05-07T15:11:06;2.40;;;2.30;;
928;SDS011;451;47.988;7.842;2023-05-07T15:20:11;2.43;;;2.27;;
928;SDS011;451;47.988;7.842;2023-05-07T15:29:14;2.83;;;2.73;;
928;SDS011;451;47.988;7.842;2023-05-07T15:38:19;3.57;;;3.37;;
928;SDS011;451;47.988;7.842;2023-05-07T15:47:22;3.30;;;3.10;;
928;SDS011;451;47.988;7.842;2023-05-07T15:56:26;2.73;;;2.53;;
928;SDS011;451;47.988;7.842;2023-05-07T16:05:29;2.70;;;2.60;;
928;SDS011;451;47.988;7.842;2023-05-07T16:14:34;2.77;;;2.67;;
928;SDS011;451;47.988;7.842;2023-05-07T16:23:37;2.80;;;2.60;;
928;SDS011;451;47.988;7.842;2023-05-07T16:32:44;2.27;;;2.17;;
928;SDS011;451;47.988;7.842;2023-05-07T16:41:47;2.47;;;2.27;;
928;SDS011;451;47.988;7.842;2023-05-07T16:50:52;2.50;;;2.30;;
928;SDS011;451;47.988;7.842;2023-05-07T16:59:55;3.53;;;3.33;;
928;SDS011;451;47.988;7.842;2023-05-07T17:09:01;2.60;;;2.40;;
928;SDS011;451;47.988;7.842;2023-05-07T17:18:05;3.40;;;2.70;;
928;SDS011;451;47.988;7.842;2023-05-07T17:27:09;3.93;;;3.73;;
928;SDS011;451;47.988;7.842;2023-05-07T17:36:12;5.63;;;5.23;;
928;SDS011;451;47.988;7.842;2023-05-07T17:45:17;5.00;;;4.70;;
928;SDS011;451;47.988;7.842;2023-05-07T17:54:20;5.83;;;5.33;;
928;SDS011;451;47.988;7.842;2023-05-07T18:03:25;3.70;;;3.50;;
928;SDS011;451;47.988;7.842;2023-05-07T18:12:29;3.83;;;3.63;;
928;SDS011;451;47.988;7.842;2023-05-07T18:21:34;3.23;;;2.97;;
928;SDS011;451;47.988;7.842;2023-05-07T18:30:37;3.27;;;3.07;;
928;SDS011;451;47.988;7.842;2023-05-07T18:39:41;3.20;;;3.00;;
928;SDS011;451;47.988;7.842;2023-05-07T18:48:45;3.60;;;3.40;;
928;SDS011;451;47.988;7.842;2023-05-07T18:57:49;3.53;;;3.33;;
928;SDS011;451;47.988;7.842;2023-05-07T19:06:53;3.37;;;3.17;;
928;SDS011;451;47.988;7.842;2023-05-07T19:15:59;2.93;;;2.73;;
928;SDS011;451;47.988;7.842;2023-05-07T19:25:03;2.80;;;2.70;;
928;SDS011;451;47.988;7.842;2023-05-07T19:34:08;2.67;;;2.57;;
928;SDS011;451;47.988;7.842;2023-05-07T19:43:11;2.97;;;2.77;;
928;SDS011;451;47.988;7.842;2023-05-07T19:52:15;3.80;;;2.80;;
928;SDS011;451;47.988;7.842;2023-05-07T20:01:18;3.60;;;2.10;;
928;SDS011;451;47.988;7.842;2023-05-07T20:10:23;2.90;;;2.70;;
928;SDS011;451;47.988;7.842;2023-05-07T20:19:25;2.60;;;2.50;;
928;SDS011;451;47.988;7.842;2023-05-07T20:28:30;2.40;;;2.30;;
928;SDS011;451;47.988;7.842;2023-05-07T20:37:33;2.53;;;2.27;;
928;SDS011;451;47.988;7.842;2023-05-07T20:46:37;2.30;;;2.10;;
928;SDS011;451;47.988;7.842;2023-05-07T20:55:40;2.33;;;2.13;;
928;SDS011;451;47.988;7.842;2023-05-07T21:04:45;2.87;;;2.27;;
928;SDS011;451;47.988;7.842;2023-05-07T21:13:48;1.93;;;1.80;;
928;SDS011;451;47.988;7.842;2023-05-07T21:22:52;1.90;;;1.80;;
928;SDS011;451;47.988;7.842;2023-05-07T21:31:55;2.10;;;2.00;;
928;SDS011;451;47.988;7.842;2023-05-07T21:41:00;2.50;;;2.30;;
928;SDS011;451;47.988;7.842;2023-05-07T21:50:03;2.20;;;2.10;;
928;SDS011;451;47.988;7.842;2023-05-07T21:59:08;3.73;;;2.57;;
928;SDS011;451;47.988;7.842;2023-05-07T22:08:11;3.00;;;2.80;;
928;SDS011;451;47.988;7.842;2023-05-07T22:17:15;2.83;;;2.73;;
928;SDS011;451;47.988;7.842;2023-05-07T22:26:18;2.57;;;2.33;;
928;SDS011;451;47.988;7.842;2023-05-07T22:35:24;3.03;;;2.83;;
928;SDS011;451;47.988;7.842;2023-05-07T22:44:27;2.93;;;2.63;;
928;SDS011;451;47.988;7.842;2023-05-07T22:53:32;3.20;;;2.90;;
928;SDS011;451;47.988;7.842;2023-05-07T23:02:35;2.77;;;2.57;;
928;SDS011;451;47.988;7.842;2023-05-07T23:11:39;5.30;;;3.43;;
928;SDS011;451;47.988;7.842;2023-05-07T23:20:43;2.97;;;2.77;;
928;SDS011;451;47.988;7.842;2023-05-07T23:29:47;3.27;;;3.07;;
928;SDS011;451;47.988;7.842;2023-05-07T23:38:50;2.90;;;2.70;;
928;SDS011;451;47.988;7.842;2023-05-07T23:47:55;3.30;;;2.50;;
928;SDS011;451;47.988;7.842;2023-05-07T23:56:58;2.87;;;2.67;;
